Aigaion — SYMC — position and weather

sailwx.info

Track history (hours):
 
Tides and Currents Weather Stations Pressure Air Temp Water Temp Dewpoint Dewpoint Depression Visibility Wind Speed Wind Dir Waves Ship Positions

Aigaion

Last reported at 2016-Nov-23 02:33 UTC. Time now 2016-Dec-04 10:13 UTC.
Position S 19°12' E 118°17'.
Warning: this ship's position is 11 days out of date.

Length 289 m; draft 17.8 m.

Type: Cargo ship. MMSI: 240174000.

Date/timePositionNaut miles runAvg speedWind from/ knotsBaromVisibWave heightAir tempDewpointWater temp
2016-Nov-23 02:33S 19°12' E 118°17'57 9.4
2016-Nov-22 20:31S 20°08' E 118°29'10 8.6
2016-Nov-22 19:23S 20°16' E 118°35'3 0.6
2016-Nov-22 14:30S 20°19' E 118°35'0 0.0
2016-Nov-22 13:12S 20°19' E 118°35'0 0.0
2016-Nov-21 23:12S 20°19' E 118°35'0 0.0
2016-Nov-21 17:24S 20°19' E 118°35'0 0.0
2016-Nov-21 14:18S 20°19' E 118°35'0 0.0
2016-Nov-21 11:24S 20°19' E 118°35'0 0.0
2016-Nov-21 10:12S 20°19' E 118°35'0 0.0
2016-Nov-21 08:24S 20°19' E 118°35'0 0.0
2016-Nov-21 07:30S 20°19' E 118°35'15 1.5
2016-Nov-20 21:24S 20°04' E 118°36'0 0.0
2016-Nov-20 17:30S 20°04' E 118°36'0 0.0
2016-Nov-20 13:18S 20°04' E 118°36'0 0.0
2016-Nov-20 12:12S 20°04' E 118°36'0 0.1
2016-Nov-20 09:30S 20°04' E 118°36'0 0.1
2016-Nov-20 08:24S 20°04' E 118°36'0 0.0
2016-Nov-20 07:06S 20°04' E 118°36'0 0.0
2016-Nov-20 06:24S 20°04' E 118°36'0 0.0
2016-Nov-20 04:12S 20°04' E 118°36'0 0.0
2016-Nov-20 03:30S 20°04' E 118°36'0 0.0
2016-Nov-20 01:24S 20°04' E 118°36'0 0.1
2016-Nov-19 23:12S 20°04' E 118°36'0 0.2
2016-Nov-19 22:33S 20°04' E 118°35'12 6.1
2016-Nov-19 20:33S 19°54' E 118°27'7 6.8
2016-Nov-19 19:32S 19°48' E 118°25'14 6.9
2016-Nov-19 17:33S 19°34' E 118°22'1010.4
2016-Nov-19 16:33S 19°24' E 118°20'2210.8
2016-Nov-19 14:33S 19°03' E 118°15'3510.7
2016-Nov-19 11:16S 18°29' E 118°06'108 9.9
2016-Nov-19 00:20S 16°44' E 117°40'7 9.4
2016-Nov-18 23:33S 16°37' E 117°38'  
Track history (hours):
 
Tides and Currents Weather Stations Pressure Air Temp Water Temp Dewpoint Dewpoint Depression Visibility Wind Speed Wind Dir Waves Ship Positions

Aigaion

Last reported at 2016-Nov-23 02:33 UTC. Time now 2016-Dec-04 10:13 UTC.
Position S 19°12' E 118°17'.
Warning: this ship's position is 11 days out of date.

Length 289 m; draft 17.8 m.

Type: Cargo ship. MMSI: 240174000.

Date/timePositionNaut miles runAvg speedWind from/ knotsBaromVisibWave heightAir tempDewpointWater temp
2016-Nov-23 02:33S 19°12' E 118°17'57 9.4
2016-Nov-22 20:31S 20°08' E 118°29'10 8.6
2016-Nov-22 19:23S 20°16' E 118°35'3 0.6
2016-Nov-22 14:30S 20°19' E 118°35'0 0.0
2016-Nov-22 13:12S 20°19' E 118°35'0 0.0
2016-Nov-21 23:12S 20°19' E 118°35'0 0.0
2016-Nov-21 17:24S 20°19' E 118°35'0 0.0
2016-Nov-21 14:18S 20°19' E 118°35'0 0.0
2016-Nov-21 11:24S 20°19' E 118°35'0 0.0
2016-Nov-21 10:12S 20°19' E 118°35'0 0.0
2016-Nov-21 08:24S 20°19' E 118°35'0 0.0
2016-Nov-21 07:30S 20°19' E 118°35'15 1.5
2016-Nov-20 21:24S 20°04' E 118°36'0 0.0
2016-Nov-20 17:30S 20°04' E 118°36'0 0.0
2016-Nov-20 13:18S 20°04' E 118°36'0 0.0
2016-Nov-20 12:12S 20°04' E 118°36'0 0.1
2016-Nov-20 09:30S 20°04' E 118°36'0 0.1
2016-Nov-20 08:24S 20°04' E 118°36'0 0.0
2016-Nov-20 07:06S 20°04' E 118°36'0 0.0
2016-Nov-20 06:24S 20°04' E 118°36'0 0.0
2016-Nov-20 04:12S 20°04' E 118°36'0 0.0
2016-Nov-20 03:30S 20°04' E 118°36'0 0.0
2016-Nov-20 01:24S 20°04' E 118°36'0 0.1
2016-Nov-19 23:12S 20°04' E 118°36'0 0.2
2016-Nov-19 22:33S 20°04' E 118°35'12 6.1
2016-Nov-19 20:33S 19°54' E 118°27'7 6.8
2016-Nov-19 19:32S 19°48' E 118°25'14 6.9
2016-Nov-19 17:33S 19°34' E 118°22'1010.4
2016-Nov-19 16:33S 19°24' E 118°20'2210.8
2016-Nov-19 14:33S 19°03' E 118°15'3510.7
2016-Nov-19 11:16S 18°29' E 118°06'108 9.9
2016-Nov-19 00:20S 16°44' E 117°40'7 9.4
2016-Nov-18 23:33S 16°37' E 117°38'  

Dump ship's entire track history